createdAt,value
2018-05-12T00:01:50.807Z,99069.81
2018-05-12T00:04:19.136Z,99076.09
2018-05-12T00:06:47.472Z,99078.87
2018-05-12T00:09:15.813Z,99074.59
2018-05-12T00:11:44.827Z,99080.09
2018-05-12T00:14:13.210Z,99080.59
2018-05-12T00:16:42.534Z,99081.42
2018-05-12T00:19:10.863Z,99074.70
2018-05-12T00:21:39.185Z,99078.24
2018-05-12T00:24:07.549Z,99076.95
2018-05-12T00:26:35.928Z,99074.75
2018-05-12T00:29:04.273Z,99069.70
2018-05-12T00:31:32.606Z,99078.13
2018-05-12T00:34:00.965Z,99072.79
2018-05-12T00:36:29.290Z,99080.09
2018-05-12T00:38:57.656Z,99073.50
2018-05-12T00:41:27.439Z,99079.52
2018-05-12T00:43:56.395Z,99074.27
2018-05-12T00:46:24.719Z,99070.34
2018-05-12T00:48:53.064Z,99068.84
2018-05-12T00:51:21.412Z,99079.33
2018-05-12T00:53:50.318Z,99075.45
2018-05-12T00:56:18.649Z,99073.21
2018-05-12T00:58:47.373Z,99079.45
2018-05-12T01:01:16.521Z,99073.27
2018-05-12T01:03:44.884Z,99075.36
2018-05-12T01:06:13.222Z,99072.69
2018-05-12T01:08:41.572Z,99070.23
2018-05-12T01:11:09.917Z,99065.03
2018-05-12T01:13:38.303Z,99070.87
2018-05-12T01:16:06.614Z,99074.36
2018-05-12T01:18:34.974Z,99076.55
2018-05-12T01:21:03.315Z,99069.55
2018-05-12T01:23:31.683Z,99074.22
2018-05-12T01:26:00.008Z,99065.58
2018-05-12T01:28:28.403Z,99063.63
2018-05-12T01:30:56.784Z,99063.55
2018-05-12T01:33:25.114Z,99063.26
2018-05-12T01:35:53.462Z,99069.51
2018-05-12T01:38:22.198Z,99065.78
2018-05-12T01:40:50.566Z,99064.44
2018-05-12T01:43:19.158Z,99068.09
2018-05-12T01:45:47.536Z,99070.46
2018-05-12T01:48:15.880Z,99069.27
2018-05-12T01:50:44.229Z,99068.48
2018-05-12T01:53:12.552Z,99061.00
2018-05-12T01:55:40.918Z,99066.89
2018-05-12T01:58:09.237Z,99063.64
2018-05-12T02:00:37.580Z,99067.56
2018-05-12T02:03:05.909Z,99069.19
2018-05-12T02:05:34.684Z,99068.34
2018-05-12T02:08:03.005Z,99065.78
2018-05-12T02:10:31.351Z,99072.95
2018-05-12T02:13:00.558Z,99077.57
2018-05-12T02:15:28.914Z,99073.66
2018-05-12T02:17:57.269Z,99077.38
2018-05-12T02:20:25.671Z,99076.27
2018-05-12T02:22:54.040Z,99078.86
2018-05-12T02:25:22.383Z,99081.50
2018-05-12T02:27:52.369Z,99079.45
2018-05-12T02:30:21.307Z,99081.92
2018-05-12T02:32:50.591Z,99082.94
2018-05-12T02:35:18.927Z,99081.92
2018-05-12T02:37:47.279Z,99080.77
2018-05-12T02:40:15.590Z,99081.61
2018-05-12T02:42:44.223Z,99074.80
2018-05-12T02:45:12.577Z,99076.10
2018-05-12T02:47:40.940Z,99069.69
2018-05-12T02:50:09.280Z,99076.03
2018-05-12T02:52:37.663Z,99070.47
2018-05-12T02:55:06.059Z,99070.23
2018-05-12T02:57:34.453Z,99069.20
2018-05-12T03:00:02.784Z,99067.06
2018-05-12T03:02:31.146Z,99063.73
2018-05-12T03:04:59.489Z,99071.02
2018-05-12T03:07:27.842Z,99065.81
2018-05-12T03:09:56.170Z,99064.11
2018-05-12T03:12:24.512Z,99064.65
2018-05-12T03:14:53.267Z,99062.70
2018-05-12T03:17:22.448Z,99068.95
2018-05-12T03:19:51.583Z,99067.93
2018-05-12T03:22:19.937Z,99070.53
2018-05-12T03:24:48.737Z,99069.06
2018-05-12T03:27:17.094Z,99067.24
2018-05-12T03:29:45.417Z,99062.17
2018-05-12T03:32:13.753Z,99061.34
2018-05-12T03:34:42.171Z,99062.58
2018-05-12T03:37:10.530Z,99058.23
2018-05-12T03:39:38.879Z,99058.72
2018-05-12T03:42:07.206Z,99059.59
2018-05-12T03:44:35.552Z,99064.45
2018-05-12T03:47:03.921Z,99063.81
2018-05-12T03:49:32.606Z,99063.44
2018-05-12T03:52:01.473Z,99069.19
2018-05-12T03:54:30.048Z,99065.67
2018-05-12T03:56:58.392Z,99064.90
2018-05-12T03:59:26.736Z,99067.92
2018-05-12T04:01:55.503Z,99070.14
2018-05-12T04:04:35.665Z,99065.31
2018-05-12T04:07:16.128Z,99067.73
2018-05-12T04:09:57.419Z,99064.03
2018-05-12T04:12:42.481Z,99066.39
2018-05-12T04:15:10.838Z,99071.25
2018-05-12T04:17:39.471Z,99067.48
2018-05-12T04:20:07.849Z,99064.23
2018-05-12T04:22:36.168Z,99069.56
2018-05-12T04:25:05.241Z,99063.03
2018-05-12T04:27:33.572Z,99064.72
2018-05-12T04:30:02.276Z,99067.72
2018-05-12T04:32:31.326Z,99065.55
2018-05-12T04:35:00.598Z,99063.25
2018-05-12T04:37:28.929Z,99062.87
2018-05-12T04:39:57.394Z,99060.48
2018-05-12T04:42:25.779Z,99067.96
2018-05-12T04:44:54.937Z,99065.86
2018-05-12T04:47:23.267Z,99062.52
2018-05-12T04:49:51.593Z,99062.75
2018-05-12T04:52:19.951Z,99067.91
2018-05-12T04:54:48.282Z,99061.84
2018-05-12T04:57:17.195Z,99063.17
2018-05-12T04:59:45.535Z,99065.35
2018-05-12T05:02:14.261Z,99061.59
2018-05-12T05:04:42.703Z,99057.59
2018-05-12T05:07:11.065Z,99056.75
2018-05-12T05:09:40.236Z,99060.67
2018-05-12T05:12:08.618Z,99059.09
2018-05-12T05:14:36.951Z,99055.64
2018-05-12T05:17:05.320Z,99060.02
2018-05-12T05:19:33.649Z,99069.81
2018-05-12T05:22:02.069Z,99068.27
2018-05-12T05:24:30.406Z,99069.93
2018-05-12T05:26:58.818Z,99075.80
2018-05-12T05:29:27.381Z,99074.52
2018-05-12T05:31:55.757Z,99077.25
2018-05-12T05:34:24.139Z,99075.55
2018-05-12T05:36:53.212Z,99078.31
2018-05-12T05:39:21.546Z,99078.34
2018-05-12T05:41:49.922Z,99076.72
2018-05-12T05:44:18.327Z,99077.92
2018-05-12T05:46:46.772Z,99078.48
2018-05-12T05:49:15.569Z,99083.88
2018-05-12T05:51:43.912Z,99077.67
2018-05-12T05:54:13.318Z,99075.38
2018-05-12T05:56:41.722Z,99079.58
2018-05-12T05:59:10.092Z,99075.78
2018-05-12T06:01:38.466Z,99080.50
2018-05-12T06:04:06.837Z,99083.95
2018-05-12T06:06:36.437Z,99081.59
2018-05-12T06:09:05.789Z,99087.20
2018-05-12T06:11:34.897Z,99087.91
2018-05-12T06:14:03.676Z,99088.32
2018-05-12T06:16:32.453Z,99088.30
2018-05-12T06:19:00.810Z,99084.52
2018-05-12T06:21:29.149Z,99082.36
2018-05-12T06:23:57.553Z,99083.84
2018-05-12T06:26:25.896Z,99085.30
2018-05-12T06:28:54.253Z,99082.19
2018-05-12T06:31:22.594Z,99074.20
2018-05-12T06:33:51.000Z,99085.04
2018-05-12T06:36:19.815Z,99091.09
2018-05-12T06:38:48.168Z,99086.72
2018-05-12T06:41:16.524Z,99083.61
2018-05-12T06:43:44.863Z,99080.59
2018-05-12T06:46:13.228Z,99085.80
2018-05-12T06:48:41.574Z,99080.81
2018-05-12T06:51:10.291Z,99074.20
2018-05-12T06:53:38.629Z,99087.02
2018-05-12T06:56:07.437Z,99091.93
2018-05-12T06:58:37.362Z,99098.28
2018-05-12T07:01:05.994Z,99088.89
2018-05-12T07:03:34.333Z,99084.97
2018-05-12T07:06:02.713Z,99084.33
2018-05-12T07:08:31.051Z,99090.92
2018-05-12T07:10:59.420Z,99089.39
2018-05-12T07:13:27.896Z,99086.96
2018-05-12T07:15:58.171Z,99086.91
2018-05-12T07:18:26.636Z,99090.86
2018-05-12T07:20:55.009Z,99082.89
2018-05-12T07:23:23.353Z,99084.88
2018-05-12T07:25:51.712Z,99082.78
2018-05-12T07:28:20.062Z,99080.16
2018-05-12T07:30:48.432Z,99072.45
2018-05-12T07:33:16.769Z,99072.80
2018-05-12T07:35:45.129Z,99069.36
2018-05-12T07:38:13.474Z,99069.70
2018-05-12T07:40:41.851Z,99072.16
2018-05-12T07:43:10.192Z,99071.56
2018-05-12T07:45:39.308Z,99067.25
2018-05-12T07:48:07.603Z,99060.36
2018-05-12T07:50:35.987Z,99066.17
2018-05-12T07:53:04.327Z,99064.13
2018-05-12T07:55:32.713Z,99063.56
2018-05-12T07:58:01.045Z,99061.11
2018-05-12T08:00:29.479Z,99056.28
2018-05-12T08:02:58.504Z,99057.27
2018-05-12T08:05:27.569Z,99057.64
2018-05-12T08:07:55.903Z,99060.71
2018-05-12T08:10:24.269Z,99051.88
2018-05-12T08:12:52.646Z,99054.35
2018-05-12T08:15:21.117Z,99044.23
2018-05-12T08:17:49.464Z,99048.40
2018-05-12T08:20:17.837Z,99045.16
2018-05-12T08:22:46.842Z,99045.58
2018-05-12T08:25:15.224Z,99044.48
2018-05-12T08:27:43.562Z,99038.23
2018-05-12T08:30:12.541Z,99037.55
2018-05-12T08:32:40.922Z,99033.13
2018-05-12T08:35:09.274Z,99028.67
2018-05-12T08:37:37.629Z,99034.53
2018-05-12T08:40:06.008Z,99030.77
2018-05-12T08:42:34.352Z,99034.64
2018-05-12T08:45:02.700Z,99037.09
2018-05-12T08:47:31.468Z,99033.27
2018-05-12T08:50:00.579Z,99031.16
2018-05-12T08:52:29.380Z,99029.41
2018-05-12T08:54:57.725Z,99026.06
2018-05-12T08:57:26.110Z,99016.05
2018-05-12T08:59:54.460Z,99018.30
2018-05-12T09:02:22.832Z,99017.44
2018-05-12T09:04:52.088Z,99017.05
2018-05-12T09:07:20.450Z,99008.63
2018-05-12T09:09:48.793Z,99011.09
2018-05-12T09:12:17.163Z,99017.19
2018-05-12T09:14:45.518Z,99009.91
2018-05-12T09:17:14.106Z,99010.37
2018-05-12T09:19:42.437Z,99010.33
2018-05-12T09:22:11.032Z,99010.47
2018-05-12T09:24:40.559Z,99007.66
2018-05-12T09:27:09.504Z,99008.77
2018-05-12T09:29:38.962Z,99005.41
2018-05-12T09:32:07.356Z,99007.44
2018-05-12T09:34:35.720Z,99002.83
2018-05-12T09:37:04.070Z,99009.00
2018-05-12T09:39:32.411Z,98999.05
2018-05-12T09:42:01.117Z,98999.77
2018-05-12T09:44:29.678Z,98995.22
2018-05-12T09:46:58.022Z,98997.13
2018-05-12T09:49:26.365Z,98990.88
2018-05-12T09:51:55.070Z,98994.56
2018-05-12T09:54:23.408Z,98987.48
2018-05-12T09:56:52.771Z,98992.02
2018-05-12T09:59:21.129Z,98986.04
2018-05-12T10:01:49.479Z,98983.92
2018-05-12T10:04:17.817Z,98986.55
2018-05-12T10:06:47.017Z,98989.96
2018-05-12T10:09:16.229Z,98985.27
2018-05-12T10:11:44.593Z,98985.27
2018-05-12T10:14:13.746Z,98983.34
2018-05-12T10:16:42.106Z,98986.11
2018-05-12T10:19:11.249Z,98977.30
2018-05-12T10:21:39.613Z,98977.91
2018-05-12T10:24:07.934Z,98977.77
2018-05-12T10:26:37.430Z,98969.78
2018-05-12T10:29:05.789Z,98968.48
2018-05-12T10:31:34.843Z,98962.82
2018-05-12T10:34:03.961Z,98958.19
2018-05-12T10:36:32.311Z,98962.28
2018-05-12T10:39:01.511Z,98956.37
2018-05-12T10:41:29.859Z,98958.53
2018-05-12T10:43:58.293Z,98955.93
2018-05-12T10:46:26.693Z,98953.61
2018-05-12T10:48:55.029Z,98948.95
2018-05-12T10:51:23.930Z,98940.39
2018-05-12T10:53:52.269Z,98937.33
2018-05-12T10:56:21.601Z,98932.05
2018-05-12T10:58:50.325Z,98928.92
2018-05-12T11:01:18.931Z,98927.21
2018-05-12T11:03:47.613Z,98925.43
2018-05-12T11:06:15.968Z,98919.48
2018-05-12T11:08:44.292Z,98922.30
2018-05-12T11:11:12.660Z,98924.19
2018-05-12T11:13:41.328Z,98915.97
2018-05-12T11:16:10.002Z,98914.14
2018-05-12T11:18:38.257Z,98908.06
2018-05-12T11:21:06.615Z,98901.09
2018-05-12T11:23:34.957Z,98901.70
2018-05-12T11:26:03.717Z,98900.83
2018-05-12T11:28:32.381Z,98895.92
2018-05-12T11:31:00.726Z,98889.39
2018-05-12T11:33:29.095Z,98887.77
2018-05-12T11:35:57.777Z,98893.25
2018-05-12T11:38:26.124Z,98881.44
2018-05-12T11:40:54.462Z,98879.16
2018-05-12T11:43:22.787Z,98879.69
2018-05-12T11:45:51.442Z,98877.94
2018-05-12T11:48:20.619Z,98876.88
2018-05-12T11:50:48.981Z,98872.82
2018-05-12T11:53:17.652Z,98865.02
2018-05-12T11:55:45.978Z,98867.67
2018-05-12T11:58:14.431Z,98861.93
2018-05-12T12:00:42.721Z,98864.05
2018-05-12T12:03:12.034Z,98859.16
2018-05-12T12:05:40.377Z,98858.98
2018-05-12T12:08:08.861Z,98854.29
2018-05-12T12:10:37.196Z,98855.38
2018-05-12T12:13:05.632Z,98848.59
2018-05-12T12:15:34.679Z,98849.22
2018-05-12T12:18:03.020Z,98853.59
2018-05-12T12:20:31.346Z,98847.42
2018-05-12T12:23:00.737Z,98845.64
2018-05-12T12:25:29.393Z,98833.95
2018-05-12T12:27:57.750Z,98836.38
2018-05-12T12:30:26.975Z,98831.55
2018-05-12T12:32:55.343Z,98829.35
2018-05-12T12:35:23.702Z,98829.08
2018-05-12T12:37:52.060Z,98829.78
2018-05-12T12:40:20.427Z,98817.21
2018-05-12T12:42:48.784Z,98819.61
2018-05-12T12:45:17.112Z,98819.19
2018-05-12T12:47:47.335Z,98820.37
2018-05-12T12:50:16.597Z,98816.11
2018-05-12T12:52:45.187Z,98806.84
2018-05-12T12:55:13.947Z,98815.44
2018-05-12T12:57:42.379Z,98798.14
2018-05-12T13:00:10.647Z,98800.29
2018-05-12T13:02:39.477Z,98798.83
2018-05-12T13:05:07.809Z,98788.58
2018-05-12T13:07:36.170Z,98785.17
2018-05-12T13:10:04.502Z,98781.30
2018-05-12T13:12:33.777Z,98773.52
2018-05-12T13:15:02.134Z,98775.12
2018-05-12T13:17:31.297Z,98773.88
2018-05-12T13:19:59.752Z,98765.86
2018-05-12T13:22:28.113Z,98766.89
2018-05-12T13:24:56.438Z,98755.58
2018-05-12T13:27:24.790Z,98765.96
2018-05-12T13:29:53.172Z,98755.52
2018-05-12T13:32:21.618Z,98760.58
2018-05-12T13:34:49.931Z,98755.01
2018-05-12T13:37:18.291Z,98755.30
2018-05-12T13:39:46.629Z,98751.27
2018-05-12T13:42:14.988Z,98744.27
2018-05-12T13:44:43.313Z,98748.31
2018-05-12T13:47:11.666Z,98748.77
2018-05-12T13:49:39.993Z,98744.37
2018-05-12T13:52:08.686Z,98739.92
2018-05-12T13:54:37.312Z,98736.03
2018-05-12T13:57:05.652Z,98727.99
2018-05-12T13:59:33.997Z,98725.24
2018-05-12T14:02:02.390Z,98727.13
2018-05-12T14:04:31.271Z,98728.84
2018-05-12T14:07:00.231Z,98729.27
2018-05-12T14:09:28.573Z,98734.19
2018-05-12T14:11:56.927Z,98727.96
2018-05-12T14:14:25.270Z,98726.38
2018-05-12T14:16:54.040Z,98723.07
2018-05-12T14:19:23.152Z,98722.18
2018-05-12T14:21:51.493Z,98713.22
2018-05-12T14:24:20.691Z,98715.77
2018-05-12T14:26:49.032Z,98700.20
2018-05-12T14:29:17.672Z,98701.59
2018-05-12T14:31:46.022Z,98700.37
2018-05-12T14:34:14.361Z,98695.39
2018-05-12T14:36:43.537Z,98697.80
2018-05-12T14:39:11.862Z,98692.45
2018-05-12T14:41:40.188Z,98695.20
2018-05-12T14:44:08.538Z,98699.36
2018-05-12T14:46:36.878Z,98693.61
2018-05-12T14:49:05.455Z,98690.95
2018-05-12T14:51:33.788Z,98690.47
2018-05-12T14:54:02.137Z,98682.83
2018-05-12T14:56:30.476Z,98681.81
2018-05-12T14:58:58.823Z,98687.48
2018-05-12T15:01:27.165Z,98685.12
2018-05-12T15:03:55.513Z,98688.66
2018-05-12T15:06:23.877Z,98685.03
2018-05-12T15:08:52.468Z,98678.30
2018-05-12T15:11:21.592Z,98677.13
2018-05-12T15:13:49.960Z,98670.78
2018-05-12T15:16:18.431Z,98664.19
2018-05-12T15:18:47.123Z,98658.38
2018-05-12T15:21:16.445Z,98662.56
2018-05-12T15:23:45.249Z,98660.37
2018-05-12T15:26:13.593Z,98652.64
2018-05-12T15:28:41.953Z,98655.66
2018-05-12T15:31:10.276Z,98646.93
2018-05-12T15:33:38.615Z,98650.18
2018-05-12T15:36:07.308Z,98636.69
2018-05-12T15:38:35.612Z,98641.93
2018-05-12T15:41:04.246Z,98643.64
2018-05-12T15:43:32.591Z,98640.45
2018-05-12T15:46:01.766Z,98629.48
2018-05-12T15:48:30.632Z,98634.33
2018-05-12T15:50:59.211Z,98631.39
2018-05-12T15:53:27.537Z,98631.41
2018-05-12T15:55:55.894Z,98625.16
2018-05-12T15:58:24.232Z,98620.11
2018-05-12T16:00:52.590Z,98622.80
2018-05-12T16:03:20.919Z,98616.83
2018-05-12T16:05:49.340Z,98615.52
2018-05-12T16:08:17.664Z,98610.46
2018-05-12T16:10:46.457Z,98605.90
2018-05-12T16:13:15.457Z,98607.64
2018-05-12T16:15:43.803Z,98605.02
2018-05-12T16:18:12.120Z,98605.82
2018-05-12T16:20:41.247Z,98606.61
2018-05-12T16:23:10.912Z,98601.00
2018-05-12T16:25:39.659Z,98600.20
2018-05-12T16:28:08.013Z,98596.18
2018-05-12T16:30:36.367Z,98591.67
2018-05-12T16:33:05.109Z,98596.01
2018-05-12T16:35:34.273Z,98589.70
2018-05-12T16:38:02.996Z,98589.45
2018-05-12T16:40:31.329Z,98587.02
2018-05-12T16:42:59.685Z,98587.34
2018-05-12T16:45:28.023Z,98593.28
2018-05-12T16:47:56.607Z,98588.27
2018-05-12T16:50:25.164Z,98588.50
2018-05-12T16:52:54.424Z,98581.92
2018-05-12T16:55:22.752Z,98581.94
2018-05-12T16:57:51.107Z,98577.77
2018-05-12T17:00:20.365Z,98575.85
2018-05-12T17:02:48.718Z,98579.41
2018-05-12T17:05:17.057Z,98574.30
2018-05-12T17:07:45.444Z,98571.93
2018-05-12T17:10:14.046Z,98576.71
2018-05-12T17:12:42.418Z,98567.80
2018-05-12T17:15:10.761Z,98566.20
2018-05-12T17:17:39.157Z,98572.33
2018-05-12T17:20:08.391Z,98571.09
2018-05-12T17:22:36.766Z,98572.54
2018-05-12T17:25:05.688Z,98562.99
2018-05-12T17:27:34.046Z,98565.12
2018-05-12T17:30:02.384Z,98558.70
2018-05-12T17:32:31.677Z,98559.31
2018-05-12T17:35:00.002Z,98560.39
2018-05-12T17:37:29.208Z,98552.73
2018-05-12T17:39:57.630Z,98555.46
2018-05-12T17:42:26.968Z,98557.31
2018-05-12T17:44:55.331Z,98553.53
2018-05-12T17:47:23.737Z,98550.34
2018-05-12T17:49:52.205Z,98552.74
2018-05-12T17:52:20.549Z,98549.99
2018-05-12T17:54:50.428Z,98546.81
2018-05-12T17:57:18.857Z,98546.47
2018-05-12T17:59:48.273Z,98545.12
2018-05-12T18:02:17.518Z,98545.66
2018-05-12T18:04:46.165Z,98547.44
2018-05-12T18:07:14.522Z,98543.51
2018-05-12T18:09:43.757Z,98545.14
2018-05-12T18:12:12.426Z,98542.52
2018-05-12T18:14:40.782Z,98546.84
2018-05-12T18:17:09.893Z,98550.14
2018-05-12T18:19:38.253Z,98556.17
2018-05-12T18:22:07.411Z,98549.94
2018-05-12T18:24:35.767Z,98547.66
2018-05-12T18:27:04.338Z,98548.75
2018-05-12T18:29:33.433Z,98547.81
2018-05-12T18:32:02.394Z,98543.75
2018-05-12T18:34:31.178Z,98549.51
2018-05-12T18:36:59.506Z,98547.19
2018-05-12T18:39:27.860Z,98553.66
2018-05-12T18:41:56.195Z,98549.67
2018-05-12T18:44:24.685Z,98553.56
2018-05-12T18:46:53.066Z,98557.02
2018-05-12T18:49:21.434Z,98555.69
2018-05-12T18:51:49.775Z,98557.14
2018-05-12T18:54:18.128Z,98561.22
2018-05-12T18:56:46.471Z,98555.50
2018-05-12T18:59:14.829Z,98560.97
2018-05-12T19:01:43.157Z,98563.30
2018-05-12T19:04:12.430Z,98562.44
2018-05-12T19:06:40.808Z,98556.94
2018-05-12T19:09:09.411Z,98564.94
2018-05-12T19:11:38.029Z,98561.78
2018-05-12T19:14:06.839Z,98562.23
2018-05-12T19:16:35.269Z,98560.69
2018-05-12T19:19:04.489Z,98560.47
2018-05-12T19:21:33.822Z,98561.20
2018-05-12T19:24:02.578Z,98563.31
2018-05-12T19:26:31.834Z,98558.77
2018-05-12T19:29:00.217Z,98554.14
2018-05-12T19:31:29.471Z,98556.47
2018-05-12T19:33:58.475Z,98554.16
2018-05-12T19:36:27.436Z,98551.03
2018-05-12T19:38:56.028Z,98558.20
2018-05-12T19:41:24.345Z,98559.50
2018-05-12T19:43:53.431Z,98554.64
2018-05-12T19:46:21.789Z,98560.93
2018-05-12T19:48:50.226Z,98558.44
2018-05-12T19:51:18.558Z,98566.11
2018-05-12T19:53:46.934Z,98557.05
2018-05-12T19:56:15.265Z,98557.93
2018-05-12T19:58:43.614Z,98561.72
2018-05-12T20:01:12.008Z,98561.16
2018-05-12T20:03:40.361Z,98559.77
2018-05-12T20:06:08.760Z,98556.23
2018-05-12T20:08:37.129Z,98557.83
2018-05-12T20:11:05.478Z,98556.72
2018-05-12T20:13:33.855Z,98548.52
2018-05-12T20:16:02.693Z,98552.41
2018-05-12T20:18:30.997Z,98552.02
2018-05-12T20:21:00.255Z,98549.49
2018-05-12T20:23:30.252Z,98548.02
2018-05-12T20:25:58.600Z,98548.89
2018-05-12T20:28:27.340Z,98552.46
2018-05-12T20:30:55.761Z,98546.30
2018-05-12T20:33:25.580Z,98554.31
2018-05-12T20:35:54.142Z,98547.81
2018-05-12T20:38:22.737Z,98548.16
2018-05-12T20:40:51.911Z,98554.95
2018-05-12T20:43:21.001Z,98549.84
2018-05-12T20:45:49.328Z,98550.30
2018-05-12T20:48:17.678Z,98544.47
2018-05-12T20:50:46.003Z,98548.14
2018-05-12T20:53:14.353Z,98544.23
2018-05-12T20:55:43.511Z,98544.05
2018-05-12T20:58:12.964Z,98543.45
2018-05-12T21:00:41.731Z,98544.90
2018-05-12T21:03:10.606Z,98543.70
2018-05-12T21:05:38.934Z,98538.12
2018-05-12T21:08:07.334Z,98540.63
2018-05-12T21:10:35.657Z,98537.38
2018-05-12T21:13:04.745Z,98534.51
2018-05-12T21:15:33.107Z,98535.34
2018-05-12T21:18:01.433Z,98533.52
2018-05-12T21:20:29.861Z,98535.87
2018-05-12T21:22:58.470Z,98537.59
2018-05-12T21:25:26.798Z,98537.14
2018-05-12T21:27:55.163Z,98540.93
2018-05-12T21:30:24.726Z,98533.81
2018-05-12T21:32:53.092Z,98535.28
2018-05-12T21:35:22.257Z,98529.78
2018-05-12T21:37:50.583Z,98523.39
2018-05-12T21:40:18.959Z,98523.27
2018-05-12T21:42:47.297Z,98521.00
2018-05-12T21:45:15.660Z,98515.69
2018-05-12T21:47:44.729Z,98513.34
2018-05-12T21:50:13.183Z,98511.73
2018-05-12T21:52:41.517Z,98517.27
2018-05-12T21:55:09.927Z,98513.05
2018-05-12T21:57:38.250Z,98515.80
2018-05-12T22:00:06.623Z,98516.11
2018-05-12T22:02:34.959Z,98516.03
2018-05-12T22:05:03.318Z,98513.55
2018-05-12T22:07:31.703Z,98517.25
2018-05-12T22:10:00.023Z,98518.60
2018-05-12T22:12:28.352Z,98520.63
2018-05-12T22:14:57.185Z,98514.19
2018-05-12T22:17:25.561Z,98515.93
2018-05-12T22:19:53.927Z,98514.10
2018-05-12T22:22:22.263Z,98515.00
2018-05-12T22:24:51.450Z,98514.45
2018-05-12T22:27:20.681Z,98513.25
2018-05-12T22:29:49.050Z,98512.66
2018-05-12T22:32:17.425Z,98511.95
2018-05-12T22:34:45.779Z,98511.28
2018-05-12T22:37:14.144Z,98511.56
2018-05-12T22:39:42.590Z,98512.23
2018-05-12T22:42:11.917Z,98512.05
2018-05-12T22:44:41.871Z,98509.00
2018-05-12T22:47:10.254Z,98506.99
2018-05-12T22:49:39.333Z,98508.28
2018-05-12T22:52:07.693Z,98499.39
2018-05-12T22:54:36.042Z,98494.67
2018-05-12T22:57:04.417Z,98490.13
2018-05-12T22:59:32.771Z,98501.12
2018-05-12T23:02:01.126Z,98488.70
2018-05-12T23:04:29.854Z,98494.98
2018-05-12T23:06:59.022Z,98492.23
2018-05-12T23:09:27.359Z,98490.73
2018-05-12T23:11:56.541Z,98488.44
2018-05-12T23:14:24.890Z,98480.97
2018-05-12T23:16:53.311Z,98479.50
2018-05-12T23:19:21.655Z,98488.58
2018-05-12T23:21:50.741Z,98480.48
2018-05-12T23:24:19.117Z,98478.07
2018-05-12T23:26:47.725Z,98484.28
2018-05-12T23:29:16.154Z,98480.95
2018-05-12T23:31:45.429Z,98479.79
2018-05-12T23:34:13.854Z,98476.84
2018-05-12T23:36:42.473Z,98471.64
2018-05-12T23:39:10.844Z,98470.27
2018-05-12T23:41:39.189Z,98464.01
2018-05-12T23:44:07.553Z,98473.11
2018-05-12T23:46:37.618Z,98465.29
2018-05-12T23:49:05.981Z,98466.19
2018-05-12T23:51:34.347Z,98465.03
2018-05-12T23:54:02.720Z,98461.87
2018-05-12T23:56:31.118Z,98462.11
2018-05-12T23:59:01.310Z,98457.56
